createdAt,value
2019-05-20T00:00:37.607Z,82.21
2019-05-20T00:03:08.654Z,82.31
2019-05-20T00:05:40.681Z,82.42
2019-05-20T00:08:10.155Z,82.04
2019-05-20T00:10:41.028Z,82.58
2019-05-20T00:13:10.461Z,82.66
2019-05-20T00:15:38.881Z,82.42
2019-05-20T00:18:11.147Z,82.49
2019-05-20T00:20:39.554Z,82.13
2019-05-20T00:23:08.968Z,82.25
2019-05-20T00:25:37.399Z,82.21
2019-05-20T00:28:05.825Z,81.84
2019-05-20T00:30:36.414Z,81.80
2019-05-20T00:33:09.721Z,81.79
2019-05-20T00:35:36.950Z,81.96
2019-05-20T00:38:05.400Z,81.79
2019-05-20T00:40:33.812Z,81.98
2019-05-20T00:43:06.947Z,82.32
2019-05-20T00:45:37.882Z,81.97
2019-05-20T00:48:16.794Z,81.51
2019-05-20T00:50:46.198Z,81.51
2019-05-20T00:53:14.632Z,81.78
2019-05-20T00:55:43.047Z,82.08
2019-05-20T00:58:12.523Z,82.08
2019-05-20T01:00:41.019Z,82.24
2019-05-20T01:03:09.430Z,82.08
2019-05-20T01:05:37.851Z,81.89
2019-05-20T01:08:06.359Z,81.56
2019-05-20T01:10:34.779Z,81.98
2019-05-20T01:13:09.370Z,82.19
2019-05-20T01:15:43.819Z,82.13
2019-05-20T01:18:12.231Z,81.96
2019-05-20T01:20:40.654Z,81.87
2019-05-20T01:23:09.059Z,82.50
2019-05-20T01:25:37.486Z,82.33
2019-05-20T01:28:06.144Z,82.21
2019-05-20T01:30:34.565Z,81.67
2019-05-20T01:33:13.854Z,82.03
2019-05-20T01:35:36.895Z,81.78
2019-05-20T01:38:08.840Z,81.84
2019-05-20T01:40:41.288Z,81.66
2019-05-20T01:43:08.956Z,81.71
2019-05-20T01:45:39.431Z,82.30
2019-05-20T01:48:07.857Z,82.30
2019-05-20T01:50:40.137Z,82.77
2019-05-20T01:53:08.556Z,82.28
2019-05-20T01:55:41.329Z,81.93
2019-05-20T01:58:12.701Z,82.19
2019-05-20T02:00:41.225Z,82.94
2019-05-20T02:03:12.247Z,82.68
2019-05-20T02:05:40.663Z,83.10
2019-05-20T02:08:09.094Z,83.08
2019-05-20T02:10:40.169Z,82.79
2019-05-20T02:13:12.570Z,82.94
2019-05-20T02:15:42.628Z,82.38
2019-05-20T02:18:13.225Z,82.31
2019-05-20T02:20:42.640Z,82.42
2019-05-20T02:23:14.903Z,82.45
2019-05-20T02:25:46.889Z,82.78
2019-05-20T02:28:21.918Z,82.71
2019-05-20T02:30:50.310Z,83.04
2019-05-20T02:33:18.749Z,82.90
2019-05-20T02:35:48.233Z,82.66
2019-05-20T02:38:22.224Z,82.24
2019-05-20T02:40:53.124Z,82.44
2019-05-20T02:43:21.641Z,83.04
2019-05-20T02:45:50.117Z,82.55
2019-05-20T02:48:18.529Z,82.47
2019-05-20T02:50:48.068Z,83.00
2019-05-20T02:53:16.471Z,82.49
2019-05-20T02:55:44.921Z,82.84
2019-05-20T02:58:15.866Z,83.04
2019-05-20T03:00:44.361Z,82.38
2019-05-20T03:03:13.833Z,82.83
2019-05-20T03:05:42.261Z,82.73
2019-05-20T03:08:13.185Z,82.64
2019-05-20T03:10:41.887Z,82.42
2019-05-20T03:13:12.303Z,82.39
2019-05-20T03:15:49.581Z,82.40
2019-05-20T03:18:19.059Z,82.38
2019-05-20T03:20:48.429Z,82.95
2019-05-20T03:23:19.397Z,82.63
2019-05-20T03:25:47.831Z,82.69
2019-05-20T03:28:18.809Z,82.56
2019-05-20T03:30:51.121Z,82.58
2019-05-20T03:33:24.293Z,82.18
2019-05-20T03:36:10.744Z,82.47
2019-05-20T03:38:38.487Z,82.37
2019-05-20T03:41:07.953Z,82.42
2019-05-20T03:43:36.381Z,82.29
2019-05-20T03:46:04.805Z,82.19
2019-05-20T03:48:35.859Z,82.45
2019-05-20T03:51:06.731Z,82.34
2019-05-20T03:53:35.177Z,81.69
2019-05-20T03:56:08.692Z,81.70
2019-05-20T03:58:38.062Z,81.83
2019-05-20T04:01:06.493Z,82.26
2019-05-20T04:03:34.902Z,82.08
2019-05-20T04:06:05.319Z,82.08
2019-05-20T04:08:33.765Z,82.01
2019-05-20T04:11:07.035Z,82.04
2019-05-20T04:13:35.464Z,82.03
2019-05-20T04:16:04.961Z,81.99
2019-05-20T04:18:36.077Z,82.23
2019-05-20T04:21:07.204Z,82.63
2019-05-20T04:23:39.161Z,82.27
2019-05-20T04:26:07.597Z,82.54
2019-05-20T04:28:40.799Z,82.50
2019-05-20T04:31:09.207Z,82.18
2019-05-20T04:33:38.942Z,82.48
2019-05-20T04:36:09.450Z,82.03
2019-05-20T04:38:38.944Z,82.03
2019-05-20T04:41:07.360Z,82.25
2019-05-20T04:43:35.857Z,81.96
2019-05-20T04:46:04.269Z,81.77
2019-05-20T04:48:33.778Z,81.71
2019-05-20T04:51:02.264Z,81.50
2019-05-20T04:53:31.675Z,81.67
2019-05-20T04:56:04.372Z,81.67
2019-05-20T04:58:32.873Z,81.48
2019-05-20T05:01:06.916Z,81.06
2019-05-20T05:03:35.960Z,81.06
2019-05-20T05:06:04.471Z,81.23
2019-05-20T05:08:33.801Z,81.12
2019-05-20T05:11:05.707Z,81.48
2019-05-20T05:13:37.113Z,81.51
2019-05-20T05:16:05.600Z,81.62
2019-05-20T05:18:36.543Z,81.27
2019-05-20T05:21:04.954Z,81.65
2019-05-20T05:23:34.913Z,81.80
2019-05-20T05:26:06.308Z,81.93
2019-05-20T05:28:37.884Z,82.12
2019-05-20T05:31:12.535Z,81.86
2019-05-20T05:33:42.598Z,81.64
2019-05-20T05:36:11.084Z,81.82
2019-05-20T05:38:39.526Z,81.79
2019-05-20T05:41:11.071Z,81.73
2019-05-20T05:43:39.144Z,81.87
2019-05-20T05:46:11.045Z,81.63
2019-05-20T05:48:39.461Z,81.18
2019-05-20T05:51:09.072Z,81.15
2019-05-20T05:53:41.802Z,81.55
2019-05-20T05:56:11.870Z,81.35
2019-05-20T05:58:57.403Z,81.76
2019-05-20T06:01:32.135Z,81.64
2019-05-20T06:04:03.122Z,81.64
2019-05-20T06:06:34.960Z,81.26
2019-05-20T06:09:05.363Z,81.54
2019-05-20T06:11:37.504Z,82.05
2019-05-20T06:14:06.985Z,81.78
2019-05-20T06:16:42.220Z,81.35
2019-05-20T06:19:10.442Z,80.89
2019-05-20T06:21:44.071Z,80.48
2019-05-20T06:24:23.213Z,79.89
2019-05-20T06:26:50.720Z,80.65
2019-05-20T06:29:20.124Z,80.09
2019-05-20T06:31:48.541Z,80.25
2019-05-20T06:34:19.124Z,80.36
2019-05-20T06:36:50.610Z,80.38
2019-05-20T06:39:20.929Z,80.99
2019-05-20T06:41:51.757Z,80.56
2019-05-20T06:44:26.946Z,80.34
2019-05-20T06:46:59.282Z,80.76
2019-05-20T06:49:30.176Z,80.11
2019-05-20T06:51:58.583Z,79.77
2019-05-20T06:54:28.033Z,78.85
2019-05-20T06:56:56.504Z,78.04
2019-05-20T06:59:28.695Z,77.35
2019-05-20T07:02:02.201Z,78.14
2019-05-20T07:04:39.877Z,77.71
2019-05-20T07:07:20.400Z,77.25
2019-05-20T07:09:46.328Z,77.90
2019-05-20T07:12:15.755Z,77.48
2019-05-20T07:14:44.140Z,77.85
2019-05-20T07:17:15.049Z,77.33
2019-05-20T07:19:43.458Z,76.95
2019-05-20T07:22:13.696Z,76.79
2019-05-20T07:24:52.354Z,77.13
2019-05-20T07:27:20.337Z,77.61
2019-05-20T07:29:51.240Z,76.57
2019-05-20T07:32:27.080Z,76.28
2019-05-20T07:34:57.935Z,75.28
2019-05-20T07:37:26.403Z,74.39
2019-05-20T07:40:00.907Z,75.56
2019-05-20T07:42:29.334Z,76.18
2019-05-20T07:44:57.848Z,74.97
2019-05-20T07:47:29.228Z,75.96
2019-05-20T07:50:01.830Z,75.08
2019-05-20T07:52:32.887Z,75.75
2019-05-20T07:55:02.116Z,75.44
2019-05-20T07:57:35.710Z,75.24
2019-05-20T08:00:08.386Z,74.71
2019-05-20T08:02:40.105Z,75.14
2019-05-20T08:05:12.362Z,75.54
2019-05-20T08:07:51.894Z,75.13
2019-05-20T08:10:16.580Z,75.38
2019-05-20T08:12:45.005Z,74.98
2019-05-20T08:15:18.434Z,74.99
2019-05-20T08:17:50.385Z,75.61
2019-05-20T08:20:20.016Z,74.98
2019-05-20T08:22:49.555Z,75.06
2019-05-20T08:25:18.370Z,74.72
2019-05-20T08:27:46.827Z,75.29
2019-05-20T08:30:15.236Z,75.36
2019-05-20T08:32:46.865Z,74.72
2019-05-20T08:35:15.280Z,74.08
2019-05-20T08:37:46.332Z,74.57
2019-05-20T08:40:14.966Z,73.82
2019-05-20T08:42:43.384Z,72.96
2019-05-20T08:45:15.978Z,73.17
2019-05-20T08:47:44.410Z,73.07
2019-05-20T08:50:16.341Z,72.71
2019-05-20T08:52:52.818Z,72.06
2019-05-20T08:55:23.146Z,72.94
2019-05-20T08:57:51.719Z,72.56
2019-05-20T09:00:24.111Z,73.30
2019-05-20T09:02:56.237Z,72.81
2019-05-20T09:05:28.847Z,72.49
2019-05-20T09:08:04.839Z,72.96
2019-05-20T09:10:40.376Z,74.12
2019-05-20T09:13:08.327Z,73.96
2019-05-20T09:15:40.587Z,74.41
2019-05-20T09:18:10.214Z,75.46
2019-05-20T09:20:38.675Z,73.98
2019-05-20T09:23:08.953Z,74.74
2019-05-20T09:25:38.475Z,73.75
2019-05-20T09:28:06.946Z,73.90
2019-05-20T09:30:35.328Z,74.20
2019-05-20T09:33:04.269Z,73.72
2019-05-20T09:35:34.514Z,73.41
2019-05-20T09:38:17.720Z,73.24
2019-05-20T09:40:39.589Z,73.14
2019-05-20T09:43:08.566Z,72.57
2019-05-20T09:45:37.068Z,72.99
2019-05-20T09:48:06.114Z,72.41
2019-05-20T09:50:34.775Z,72.82
2019-05-20T09:53:06.783Z,73.12
2019-05-20T09:55:33.746Z,72.13
2019-05-20T09:58:03.462Z,72.28
2019-05-20T10:00:33.086Z,71.25
2019-05-20T10:03:04.501Z,71.25
2019-05-20T10:05:37.215Z,71.04
2019-05-20T10:08:05.168Z,70.75
2019-05-20T10:10:36.379Z,69.79
2019-05-20T10:13:08.162Z,69.98
2019-05-20T10:15:39.457Z,70.61
2019-05-20T10:18:09.630Z,71.13
2019-05-20T10:20:40.525Z,69.27
2019-05-20T10:23:15.660Z,69.64
2019-05-20T10:25:42.776Z,71.33
2019-05-20T10:28:13.708Z,70.01
2019-05-20T10:30:43.133Z,70.17
2019-05-20T10:33:17.737Z,68.82
2019-05-20T10:35:47.203Z,69.05
2019-05-20T10:38:21.906Z,68.58
2019-05-20T10:40:50.382Z,69.02
2019-05-20T10:43:22.310Z,68.62
2019-05-20T10:45:55.816Z,69.90
2019-05-20T10:48:27.862Z,68.81
2019-05-20T10:51:03.387Z,68.73
2019-05-20T10:53:39.809Z,69.84
2019-05-20T10:56:15.745Z,68.34
2019-05-20T10:59:03.483Z,68.56
2019-05-20T11:01:40.456Z,69.28
2019-05-20T11:04:08.877Z,69.52
2019-05-20T11:06:42.093Z,70.22
2019-05-20T11:09:13.998Z,70.11
2019-05-20T11:11:42.107Z,69.10
2019-05-20T11:14:11.519Z,69.50
2019-05-20T11:16:39.981Z,68.07
2019-05-20T11:19:09.479Z,68.94
2019-05-20T11:21:44.666Z,67.99
2019-05-20T11:24:12.093Z,68.84
2019-05-20T11:26:40.610Z,68.46
2019-05-20T11:29:10.317Z,66.89
2019-05-20T11:31:38.730Z,66.62
2019-05-20T11:34:10.980Z,67.16
2019-05-20T11:36:39.421Z,67.99
2019-05-20T11:39:10.365Z,67.14
2019-05-20T11:41:53.011Z,66.52
2019-05-20T11:44:15.848Z,65.49
2019-05-20T11:46:44.305Z,66.04
2019-05-20T11:49:13.757Z,65.95
2019-05-20T11:51:42.200Z,66.20
2019-05-20T11:54:13.067Z,66.42
2019-05-20T11:56:42.702Z,65.95
2019-05-20T11:59:12.902Z,65.17
2019-05-20T12:01:44.216Z,64.86
2019-05-20T12:04:12.784Z,65.17
2019-05-20T12:06:41.194Z,64.03
2019-05-20T12:09:09.641Z,64.95
2019-05-20T12:11:49.616Z,63.30
2019-05-20T12:14:18.045Z,63.06
2019-05-20T12:16:46.491Z,63.79
2019-05-20T12:19:15.917Z,63.23
2019-05-20T12:21:44.333Z,63.42
2019-05-20T12:24:16.985Z,63.67
2019-05-20T12:27:03.104Z,63.49
2019-05-20T12:29:23.268Z,64.38
2019-05-20T12:31:51.692Z,64.76
2019-05-20T12:34:20.816Z,64.74
2019-05-20T12:36:51.211Z,65.07
2019-05-20T12:39:26.952Z,64.19
2019-05-20T12:41:57.823Z,64.97
2019-05-20T12:44:27.136Z,63.89
2019-05-20T12:46:56.614Z,64.26
2019-05-20T12:49:32.232Z,63.40
2019-05-20T12:52:01.768Z,64.11
2019-05-20T12:54:30.221Z,63.79
2019-05-20T12:56:58.641Z,61.83
2019-05-20T12:59:28.027Z,63.25
2019-05-20T13:01:57.558Z,61.52
2019-05-20T13:04:25.991Z,61.33
2019-05-20T13:06:58.176Z,61.40
2019-05-20T13:09:31.311Z,61.88
2019-05-20T13:12:00.326Z,62.57
2019-05-20T13:14:28.697Z,62.92
2019-05-20T13:17:03.433Z,60.85
2019-05-20T13:19:32.310Z,61.36
2019-05-20T13:22:03.378Z,61.36
2019-05-20T13:24:31.895Z,61.81
2019-05-20T13:27:01.339Z,60.63
2019-05-20T13:29:34.726Z,61.56
2019-05-20T13:32:03.175Z,60.28
2019-05-20T13:34:31.608Z,61.40
2019-05-20T13:37:03.802Z,61.98
2019-05-20T13:39:31.509Z,62.64
2019-05-20T13:42:03.431Z,62.14
2019-05-20T13:44:31.877Z,62.37
2019-05-20T13:47:01.234Z,61.65
2019-05-20T13:49:32.047Z,62.99
2019-05-20T13:52:00.459Z,61.86
2019-05-20T13:54:28.944Z,63.30
2019-05-20T13:57:00.557Z,62.76
2019-05-20T13:59:37.478Z,62.08
2019-05-20T14:02:06.908Z,62.58
2019-05-20T14:04:35.379Z,62.61
2019-05-20T14:07:03.815Z,64.80
2019-05-20T14:09:32.284Z,63.34
2019-05-20T14:12:00.691Z,64.03
2019-05-20T14:14:31.612Z,64.32
2019-05-20T14:17:00.107Z,64.99
2019-05-20T14:19:28.644Z,63.82
2019-05-20T14:21:58.077Z,63.07
2019-05-20T14:24:27.574Z,63.78
2019-05-20T14:26:55.998Z,60.71
2019-05-20T14:29:24.442Z,62.01
2019-05-20T14:31:52.871Z,62.33
2019-05-20T14:34:21.272Z,61.83
2019-05-20T14:36:53.752Z,62.21
2019-05-20T14:39:22.186Z,61.74
2019-05-20T14:41:50.631Z,61.04
2019-05-20T14:44:19.043Z,61.39
2019-05-20T14:46:48.478Z,60.56
2019-05-20T14:49:19.082Z,61.11
2019-05-20T14:51:51.957Z,61.48
2019-05-20T14:54:20.877Z,62.87
2019-05-20T14:56:49.305Z,63.28
2019-05-20T14:59:17.768Z,63.00
2019-05-20T15:01:49.823Z,63.49
2019-05-20T15:04:18.323Z,63.45
2019-05-20T15:06:50.799Z,63.86
2019-05-20T15:09:20.770Z,64.34
2019-05-20T15:11:50.133Z,63.93
2019-05-20T15:14:18.561Z,63.64
2019-05-20T15:16:47.098Z,63.49
2019-05-20T15:19:15.538Z,62.37
2019-05-20T15:21:43.980Z,63.49
2019-05-20T15:24:12.518Z,63.38
2019-05-20T15:26:45.792Z,62.66
2019-05-20T15:29:27.695Z,62.33
2019-05-20T15:31:44.370Z,62.54
2019-05-20T15:34:12.781Z,61.61
2019-05-20T15:36:41.234Z,60.68
2019-05-20T15:39:10.855Z,61.04
2019-05-20T15:41:39.470Z,61.94
2019-05-20T15:44:10.517Z,63.11
2019-05-20T15:46:39.327Z,62.76
2019-05-20T15:49:07.877Z,62.85
2019-05-20T15:51:36.328Z,63.63
2019-05-20T15:54:08.009Z,63.96
2019-05-20T15:56:36.606Z,63.81
2019-05-20T15:59:09.260Z,63.19
2019-05-20T16:01:37.903Z,63.49
2019-05-20T16:04:08.447Z,62.67
2019-05-20T16:06:40.955Z,63.21
2019-05-20T16:09:09.641Z,63.45
2019-05-20T16:11:40.484Z,64.15
2019-05-20T16:14:12.047Z,64.31
2019-05-20T16:16:40.491Z,63.00
2019-05-20T16:19:08.989Z,63.58
2019-05-20T16:21:37.425Z,63.70
2019-05-20T16:24:09.749Z,63.98
2019-05-20T16:26:38.229Z,64.16
2019-05-20T16:29:11.884Z,64.70
2019-05-20T16:31:39.691Z,63.75
2019-05-20T16:34:08.171Z,63.30
2019-05-20T16:36:37.892Z,63.27
2019-05-20T16:39:07.375Z,63.68
2019-05-20T16:41:35.918Z,63.85
2019-05-20T16:44:05.368Z,63.98
2019-05-20T16:46:33.790Z,64.92
2019-05-20T16:49:02.285Z,63.38
2019-05-20T16:51:34.508Z,63.58
2019-05-20T16:54:06.167Z,64.19
2019-05-20T16:56:34.520Z,63.92
2019-05-20T16:59:05.452Z,64.81
2019-05-20T17:01:45.578Z,64.72
2019-05-20T17:04:04.155Z,64.16
2019-05-20T17:06:32.605Z,64.69
2019-05-20T17:09:01.042Z,64.66
2019-05-20T17:11:30.438Z,63.79
2019-05-20T17:14:10.546Z,63.94
2019-05-20T17:16:36.740Z,64.62
2019-05-20T17:19:07.839Z,63.72
2019-05-20T17:21:40.668Z,64.12
2019-05-20T17:24:11.639Z,64.37
2019-05-20T17:26:42.736Z,64.89
2019-05-20T17:29:11.152Z,64.30
2019-05-20T17:31:43.290Z,63.92
2019-05-20T17:34:11.731Z,64.01
2019-05-20T17:36:40.151Z,64.93
2019-05-20T17:39:11.281Z,63.91
2019-05-20T17:41:39.772Z,63.42
2019-05-20T17:44:08.408Z,64.18
2019-05-20T17:46:39.823Z,63.99
2019-05-20T17:49:09.723Z,63.75
2019-05-20T17:51:38.160Z,64.38
2019-05-20T17:54:06.993Z,64.47
2019-05-20T17:56:35.865Z,64.47
2019-05-20T17:59:04.752Z,64.25
2019-05-20T18:01:35.848Z,64.68
2019-05-20T18:04:13.318Z,65.21
2019-05-20T18:06:40.811Z,65.07
2019-05-20T18:09:09.821Z,65.20
2019-05-20T18:11:40.779Z,65.77
2019-05-20T18:14:09.353Z,65.60
2019-05-20T18:16:38.348Z,65.89
2019-05-20T18:19:06.829Z,65.98
2019-05-20T18:21:35.622Z,65.92
2019-05-20T18:24:04.285Z,65.84
2019-05-20T18:26:34.006Z,66.01
2019-05-20T18:29:06.326Z,66.30
2019-05-20T18:31:35.009Z,66.55
2019-05-20T18:34:03.797Z,66.35
2019-05-20T18:36:34.288Z,66.62
2019-05-20T18:39:02.701Z,66.64
2019-05-20T18:41:31.314Z,66.91
2019-05-20T18:43:59.901Z,66.79
2019-05-20T18:46:33.560Z,67.20
2019-05-20T18:49:02.116Z,67.35
2019-05-20T18:51:30.585Z,67.53
2019-05-20T18:53:59.135Z,67.71
2019-05-20T18:56:30.427Z,68.39
2019-05-20T18:59:02.899Z,68.06
2019-05-20T19:01:45.790Z,68.03
2019-05-20T19:04:01.649Z,68.94
2019-05-20T19:06:34.104Z,69.03
2019-05-20T19:09:02.885Z,69.67
2019-05-20T19:11:31.670Z,69.63
2019-05-20T19:14:00.265Z,70.00
2019-05-20T19:16:28.887Z,69.76
2019-05-20T19:19:02.234Z,70.04
2019-05-20T19:21:30.858Z,70.96
2019-05-20T19:23:59.357Z,70.84
2019-05-20T19:26:29.093Z,70.88
2019-05-20T19:28:57.550Z,71.13
2019-05-20T19:31:25.980Z,71.32
2019-05-20T19:33:54.407Z,71.15
2019-05-20T19:36:25.342Z,71.02
2019-05-20T19:38:53.816Z,71.14
2019-05-20T19:41:22.401Z,71.51
2019-05-20T19:43:55.097Z,71.63
2019-05-20T19:46:23.566Z,71.90
2019-05-20T19:48:52.146Z,72.13
2019-05-20T19:51:21.626Z,72.69
2019-05-20T19:53:56.681Z,72.95
2019-05-20T19:56:25.127Z,73.30
2019-05-20T19:58:53.548Z,73.93
2019-05-20T20:01:22.005Z,74.46
2019-05-20T20:04:01.195Z,74.63
2019-05-20T20:06:33.688Z,74.80
2019-05-20T20:09:02.129Z,74.46
2019-05-20T20:11:33.143Z,74.37
2019-05-20T20:14:04.017Z,74.36
2019-05-20T20:16:32.479Z,74.22
2019-05-20T20:19:04.956Z,74.26
2019-05-20T20:21:36.141Z,74.46
2019-05-20T20:24:04.641Z,75.13
2019-05-20T20:26:33.099Z,75.39
2019-05-20T20:29:11.323Z,75.43
2019-05-20T20:31:41.148Z,75.54
2019-05-20T20:34:14.978Z,75.28
2019-05-20T20:36:43.446Z,75.98
2019-05-20T20:39:12.936Z,75.64
2019-05-20T20:41:43.877Z,75.14
2019-05-20T20:44:12.464Z,74.74
2019-05-20T20:46:44.791Z,74.53
2019-05-20T20:49:14.745Z,74.47
2019-05-20T20:51:42.600Z,74.52
2019-05-20T20:54:11.082Z,74.44
2019-05-20T20:56:43.089Z,74.87
2019-05-20T20:59:11.680Z,74.93
2019-05-20T21:01:40.202Z,75.30
2019-05-20T21:04:08.626Z,75.29
2019-05-20T21:06:37.832Z,75.28
2019-05-20T21:09:07.012Z,75.07
2019-05-20T21:11:35.412Z,75.17
2019-05-20T21:14:09.565Z,75.23
2019-05-20T21:16:37.972Z,74.87
2019-05-20T21:19:12.006Z,74.31
2019-05-20T21:21:44.183Z,73.58
2019-05-20T21:24:12.606Z,73.61
2019-05-20T21:26:41.102Z,73.67
2019-05-20T21:29:09.580Z,73.64
2019-05-20T21:31:38.005Z,73.37
2019-05-20T21:34:06.411Z,73.34
2019-05-20T21:36:46.901Z,73.46
2019-05-20T21:39:06.118Z,73.72
2019-05-20T21:41:34.534Z,73.75
2019-05-20T21:44:02.976Z,73.78
2019-05-20T21:46:31.413Z,73.92
2019-05-20T21:49:02.215Z,74.09
2019-05-20T21:51:30.685Z,74.15
2019-05-20T21:54:01.641Z,74.36
2019-05-20T21:56:30.083Z,74.48
2019-05-20T21:59:02.768Z,74.73
2019-05-20T22:01:34.187Z,74.92
2019-05-20T22:04:02.715Z,74.60
2019-05-20T22:06:31.181Z,74.77
2019-05-20T22:08:59.650Z,75.11
2019-05-20T22:11:30.904Z,75.16
2019-05-20T22:13:59.467Z,75.35
2019-05-20T22:16:30.456Z,74.99
2019-05-20T22:19:01.336Z,74.76
2019-05-20T22:21:31.457Z,74.77
2019-05-20T22:24:03.951Z,74.66
2019-05-20T22:26:33.375Z,74.36
2019-05-20T22:29:05.621Z,74.31
2019-05-20T22:31:38.072Z,74.11
2019-05-20T22:34:06.478Z,74.03
2019-05-20T22:36:34.921Z,73.59
2019-05-20T22:39:04.360Z,73.59
2019-05-20T22:41:33.883Z,73.34
2019-05-20T22:44:07.646Z,72.92
2019-05-20T22:46:38.714Z,73.21
2019-05-20T22:49:09.662Z,72.89
2019-05-20T22:51:39.059Z,72.59
2019-05-20T22:54:09.945Z,72.37
2019-05-20T22:56:38.358Z,72.67
2019-05-20T22:59:10.745Z,71.78
2019-05-20T23:01:41.724Z,71.91
2019-05-20T23:04:11.928Z,71.68
2019-05-20T23:06:40.402Z,71.47
2019-05-20T23:09:10.793Z,71.13
2019-05-20T23:11:38.989Z,71.32
2019-05-20T23:14:07.433Z,71.39
2019-05-20T23:16:35.929Z,70.99
2019-05-20T23:19:06.729Z,71.22
2019-05-20T23:21:34.507Z,70.86
2019-05-20T23:24:02.929Z,71.23
2019-05-20T23:26:35.412Z,71.53
2019-05-20T23:29:04.007Z,71.59
2019-05-20T23:31:32.417Z,72.00
2019-05-20T23:34:12.155Z,72.63
2019-05-20T23:36:32.011Z,73.35
2019-05-20T23:39:00.466Z,73.94
2019-05-20T23:41:32.928Z,73.57
2019-05-20T23:44:03.662Z,73.98
2019-05-20T23:46:32.035Z,74.22
2019-05-20T23:49:00.445Z,74.42
2019-05-20T23:51:36.198Z,74.75
2019-05-20T23:54:04.658Z,74.97
2019-05-20T23:56:33.059Z,74.99
2019-05-20T23:59:02.743Z,75.16
